Time;durP1;ratioP1;P1;durP2;ratioP2;P2;SDS_P1;SDS_P2;PMS_P1;PMS_P2;Temp;Humidity;BMP_temperature;BMP_pressure;BME280_temperature;BME280_humidity;BME280_pressure;Samples;Min_cycle;Max_cycle;Signal;HPM_P1;HPM_P2
2021/10/06 00:01:02;;;;;;;0.00;0.00;;;12.60;66.50;;;;;;5074910;28;20078;-78
2021/10/06 00:03:28;;;;;;;0.00;0.00;;;12.50;66.80;;;;;;5074840;28;20107;-79
2021/10/06 00:05:54;;;;;;;0.00;0.00;;;12.50;67.00;;;;;;5074515;28;20078;-78
2021/10/06 00:08:20;;;;;;;0.00;0.00;;;12.50;67.10;;;;;;5074650;28;20024;-79
2021/10/06 00:10:46;;;;;;;0.00;0.00;;;12.40;67.20;;;;;;5081443;28;20024;-78
2021/10/06 00:13:15;;;;;;;0.00;0.00;;;12.40;67.40;;;;;;5064756;28;20027;-80
2021/10/06 00:15:41;;;;;;;0.00;0.00;;;12.30;67.50;;;;;;5079807;28;20403;-78
2021/10/06 00:18:07;;;;;;;0.00;0.00;;;12.30;67.60;;;;;;5076730;28;20111;-78
2021/10/06 00:20:33;;;;;;;0.00;0.00;;;12.30;67.70;;;;;;5075238;28;20102;-77
2021/10/06 00:22:59;;;;;;;0.00;0.00;;;12.20;67.70;;;;;;5058294;28;20471;-77
2021/10/06 00:25:25;;;;;;;0.00;0.00;;;12.20;67.90;;;;;;5076872;28;20365;-77
2021/10/06 00:27:51;;;;;;;0.00;0.00;;;12.20;68.10;;;;;;5075945;28;20078;-79
2021/10/06 00:30:17;;;;;;;0.00;0.00;;;12.10;68.20;;;;;;5066577;28;20033;-80
2021/10/06 00:32:43;;;;;;;0.00;0.00;;;12.10;68.20;;;;;;5076105;28;20487;-80
2021/10/06 00:35:09;;;;;;;0.00;0.00;;;12.10;68.30;;;;;;5078424;28;20031;-77
2021/10/06 00:37:35;;;;;;;0.00;0.00;;;12.10;68.40;;;;;;5077343;28;20032;-78
2021/10/06 00:40:01;;;;;;;0.00;0.00;;;12.00;68.40;;;;;;5077234;28;20031;-77
2021/10/06 00:42:27;;;;;;;0.00;0.00;;;12.00;68.50;;;;;;5075210;28;20409;-79
2021/10/06 00:44:53;;;;;;;0.00;0.00;;;12.00;68.50;;;;;;5056382;28;20101;-77
2021/10/06 00:47:19;;;;;;;0.05;0.00;;;12.10;68.70;;;;;;5073535;28;20029;-79
2021/10/06 00:49:44;;;;;;;0.00;0.00;;;12.00;68.70;;;;;;5055952;28;20064;-78
2021/10/06 00:52:12;;;;;;;0.00;0.00;;;12.10;68.70;;;;;;5073943;28;20060;-78
2021/10/06 00:54:38;;;;;;;0.00;0.00;;;12.00;68.70;;;;;;5073562;28;20109;-78
2021/10/06 00:57:05;;;;;;;0.00;0.00;;;12.00;68.70;;;;;;5073385;28;20643;-78
2021/10/06 00:59:31;;;;;;;0.00;0.00;;;12.00;68.70;;;;;;5072224;28;20035;-78
2021/10/06 01:01:57;;;;;;;0.00;0.00;;;12.00;68.70;;;;;;5073484;28;20060;-78
2021/10/06 01:04:23;;;;;;;0.00;0.00;;;12.00;68.80;;;;;;5072034;28;20031;-77
2021/10/06 01:06:49;;;;;;;0.00;0.00;;;12.00;68.90;;;;;;5073524;28;20104;-78
2021/10/06 01:09:15;;;;;;;0.00;0.00;;;12.00;68.90;;;;;;5073565;28;20120;-78
2021/10/06 01:11:41;;;;;;;0.00;0.00;;;11.90;69.00;;;;;;5073105;28;20056;-77
2021/10/06 01:14:08;;;;;;;0.00;0.00;;;11.90;69.10;;;;;;5073370;28;20068;-78
2021/10/06 01:16:34;;;;;;;0.00;0.00;;;11.90;69.20;;;;;;5073264;28;20033;-78
2021/10/06 01:19:00;;;;;;;0.00;0.00;;;11.90;69.40;;;;;;5055505;28;20071;-77
2021/10/06 01:21:26;;;;;;;0.00;0.00;;;11.90;69.50;;;;;;5073241;28;20100;-78
2021/10/06 01:23:54;;;;;;;0.00;0.00;;;11.90;69.70;;;;;;5055309;28;20028;-78
2021/10/06 01:26:20;;;;;;;0.00;0.00;;;11.80;69.70;;;;;;5073314;28;20076;-79
2021/10/06 01:28:51;;;;;;;0.00;0.00;;;11.80;69.90;;;;;;5055170;28;20032;-78
2021/10/06 01:31:18;;;;;;;0.00;0.00;;;11.80;70.10;;;;;;5071887;28;20036;-79
2021/10/06 01:33:45;;;;;;;0.00;0.00;;;11.80;70.20;;;;;;5073456;28;20109;-78
2021/10/06 01:36:11;;;;;;;0.00;0.00;;;11.70;70.40;;;;;;5073082;28;20131;-78
2021/10/06 01:38:37;;;;;;;0.00;0.00;;;11.70;70.50;;;;;;5073087;28;20037;-78
2021/10/06 01:41:03;;;;;;;0.00;0.00;;;11.70;70.60;;;;;;5073228;28;20449;-78
2021/10/06 01:43:29;;;;;;;0.00;0.00;;;11.60;70.70;;;;;;5072844;28;20079;-78
2021/10/06 01:45:56;;;;;;;0.00;0.00;;;11.60;70.80;;;;;;5073072;28;20480;-79
2021/10/06 01:48:22;;;;;;;0.00;0.00;;;11.60;71.00;;;;;;5054980;28;20021;-79
2021/10/06 01:50:47;;;;;;;0.00;0.00;;;11.50;71.00;;;;;;5073047;28;20025;-79
2021/10/06 01:53:15;;;;;;;0.00;0.00;;;11.50;71.10;;;;;;5073325;28;20377;-79
2021/10/06 01:55:42;;;;;;;0.00;0.00;;;11.50;71.20;;;;;;5059004;28;20480;-79
2021/10/06 01:58:13;;;;;;;0.00;0.00;;;11.50;71.30;;;;;;5077021;28;20056;-80
2021/10/06 02:00:41;;;;;;;0.00;0.00;;;11.50;71.40;;;;;;5074462;28;20121;-79
2021/10/06 02:03:06;;;;;;;0.00;0.00;;;11.50;71.50;;;;;;5063524;28;20024;-79
2021/10/06 02:05:33;;;;;;;0.00;0.00;;;11.40;71.50;;;;;;5076225;28;20115;-79
2021/10/06 02:08:04;;;;;;;0.00;0.00;;;11.40;71.60;;;;;;5076246;28;20456;-78
2021/10/06 02:10:31;;;;;;;0.00;0.00;;;11.40;71.80;;;;;;5076259;28;20036;-80
2021/10/06 02:12:59;;;;;;;0.00;0.00;;;11.40;71.80;;;;;;5076634;28;20027;-80
2021/10/06 02:15:25;;;;;;;0.00;0.00;;;11.40;72.00;;;;;;5058401;28;20040;-78
2021/10/06 02:17:51;;;;;;;0.00;0.00;;;11.40;72.00;;;;;;5058473;28;20101;-79
2021/10/06 02:20:17;;;;;;;0.00;0.00;;;11.40;72.20;;;;;;5076433;28;20053;-79
2021/10/06 02:22:43;;;;;;;0.00;0.00;;;11.40;72.30;;;;;;5076325;28;20372;-80
2021/10/06 02:25:10;;;;;;;0.00;0.00;;;11.40;72.40;;;;;;5058302;28;20020;-80
2021/10/06 02:27:36;;;;;;;0.00;0.00;;;11.40;72.50;;;;;;5076238;28;20079;-79
2021/10/06 02:30:04;;;;;;;0.10;0.00;;;11.40;72.60;;;;;;5075773;28;20404;-79
2021/10/06 02:32:30;;;;;;;0.00;0.00;;;11.40;72.60;;;;;;5075445;28;20036;-79
2021/10/06 02:34:55;;;;;;;0.00;0.00;;;11.40;72.70;;;;;;5076271;28;20032;-79
2021/10/06 02:37:21;;;;;;;0.00;0.00;;;11.40;72.90;;;;;;5075970;28;20362;-80
2021/10/06 02:39:47;;;;;;;0.00;0.00;;;11.40;73.00;;;;;;5058706;28;20074;-79
2021/10/06 02:42:13;;;;;;;0.00;0.00;;;11.40;73.10;;;;;;5076162;28;20044;-79
2021/10/06 02:44:38;;;;;;;0.00;0.00;;;11.40;73.30;;;;;;5075901;28;20082;-79
2021/10/06 02:47:04;;;;;;;0.00;0.00;;;11.40;73.40;;;;;;5075870;28;20396;-79
2021/10/06 02:49:30;;;;;;;0.00;0.00;;;11.40;73.50;;;;;;5058471;28;20113;-79
2021/10/06 02:51:56;;;;;;;0.00;0.00;;;11.40;73.60;;;;;;5055056;28;20021;-79
2021/10/06 02:54:21;;;;;;;0.00;0.00;;;11.40;73.70;;;;;;5076527;28;20412;-79
2021/10/06 02:56:47;;;;;;;0.00;0.00;;;11.40;73.80;;;;;;5077124;28;20115;-78
2021/10/06 02:59:13;;;;;;;0.00;0.00;;;11.40;73.90;;;;;;5078507;28;20036;-78
2021/10/06 03:01:38;;;;;;;0.00;0.00;;;11.40;73.90;;;;;;5088337;28;20028;-78
2021/10/06 03:04:04;;;;;;;0.00;0.00;;;11.50;74.10;;;;;;5067998;28;20024;-78
2021/10/06 03:06:30;;;;;;;0.00;0.00;;;11.40;74.00;;;;;;5084566;28;20048;-78
2021/10/06 03:08:55;;;;;;;0.10;0.10;;;11.40;74.10;;;;;;5087822;28;20024;-78
2021/10/06 03:11:22;;;;;;;0.00;0.00;;;11.40;74.10;;;;;;5089788;28;20035;-77
2021/10/06 03:13:48;;;;;;;0.03;0.00;;;11.40;74.10;;;;;;5085852;28;20093;-78
2021/10/06 03:16:14;;;;;;;0.00;0.00;;;11.50;74.20;;;;;;5067334;28;20064;-77
2021/10/06 03:18:39;;;;;;;0.00;0.00;;;11.40;74.10;;;;;;5083876;28;20033;-79
2021/10/06 03:21:05;;;;;;;0.00;0.00;;;11.50;74.20;;;;;;5067856;28;20025;-81
2021/10/06 03:23:31;;;;;;;0.00;0.00;;;11.50;74.20;;;;;;5020636;28;20470;-80
2021/10/06 03:25:57;;;;;;;0.00;0.00;;;11.50;74.30;;;;;;5047329;28;20040;-81
2021/10/06 03:28:22;;;;;;;0.00;0.00;;;11.40;74.30;;;;;;5041573;28;20082;-81
2021/10/06 03:30:48;;;;;;;0.00;0.00;;;11.50;74.30;;;;;;5046725;28;20087;-79
2021/10/06 03:33:14;;;;;;;0.00;0.00;;;11.40;74.30;;;;;;5049519;28;20080;-80
2021/10/06 03:35:40;;;;;;;0.00;0.00;;;11.40;74.30;;;;;;5044641;28;20098;-80
2021/10/06 03:38:06;;;;;;;0.00;0.00;;;11.40;74.30;;;;;;5016956;28;20036;-79
2021/10/06 03:40:31;;;;;;;0.08;0.08;;;11.50;74.40;;;;;;5034793;28;20026;-79
2021/10/06 03:42:57;;;;;;;0.00;0.00;;;11.40;74.30;;;;;;5034852;28;20026;-78
2021/10/06 03:45:23;;;;;;;0.00;0.00;;;11.50;74.50;;;;;;5034611;28;20381;-78
2021/10/06 03:47:49;;;;;;;0.00;0.00;;;11.40;74.50;;;;;;5037561;28;20025;-79
2021/10/06 03:50:17;;;;;;;0.00;0.00;;;11.50;74.60;;;;;;5034600;28;20079;-78
2021/10/06 03:52:44;;;;;;;0.00;0.00;;;11.50;74.70;;;;;;5034537;28;20030;-78
2021/10/06 03:55:11;;;;;;;0.00;0.00;;;11.50;74.70;;;;;;5016664;28;20048;-79
2021/10/06 03:57:37;;;;;;;0.00;0.00;;;11.50;74.80;;;;;;5016976;28;20037;-78
2021/10/06 04:00:08;;;;;;;0.00;0.00;;;11.50;74.90;;;;;;5034547;28;20053;-77
2021/10/06 04:02:34;;;;;;;0.00;0.00;;;11.50;74.90;;;;;;5034176;28;20021;-78
2021/10/06 04:05:00;;;;;;;0.00;0.00;;;11.50;74.90;;;;;;5034915;28;20031;-78
2021/10/06 04:07:25;;;;;;;0.00;0.00;;;11.50;74.90;;;;;;5034308;28;20026;-85
2021/10/06 04:09:51;;;;;;;0.00;0.00;;;11.50;74.80;;;;;;5034431;28;20029;-78
2021/10/06 04:12:17;;;;;;;0.00;0.00;;;11.50;74.70;;;;;;5034062;28;20029;-79
2021/10/06 04:14:43;;;;;;;0.00;0.00;;;11.50;74.60;;;;;;5034127;28;20021;-80
2021/10/06 04:17:08;;;;;;;0.00;0.00;;;11.50;74.50;;;;;;5033688;28;20040;-79
2021/10/06 04:19:34;;;;;;;0.00;0.00;;;11.50;74.40;;;;;;5017709;28;20044;-80
2021/10/06 04:22:00;;;;;;;0.00;0.00;;;11.50;74.30;;;;;;5042427;28;20021;-79
2021/10/06 04:24:26;;;;;;;0.00;0.00;;;11.50;74.30;;;;;;5053594;28;20380;-79
2021/10/06 04:26:51;;;;;;;0.00;0.00;;;11.50;74.30;;;;;;5032577;28;20052;-77
2021/10/06 04:29:17;;;;;;;0.00;0.00;;;11.50;74.20;;;;;;5033002;28;20029;-78
2021/10/06 04:31:43;;;;;;;0.00;0.00;;;11.60;74.20;;;;;;5033694;28;20474;-78
2021/10/06 04:34:08;;;;;;;0.00;0.00;;;11.60;74.20;;;;;;5034216;28;20030;-78
2021/10/06 04:36:34;;;;;;;0.00;0.00;;;11.60;74.10;;;;;;5032625;28;20124;-79
2021/10/06 04:39:00;;;;;;;0.00;0.00;;;11.60;74.10;;;;;;5023298;28;20113;-79
2021/10/06 04:41:27;;;;;;;0.00;0.00;;;11.70;74.00;;;;;;5019044;28;20474;-79
2021/10/06 04:43:53;;;;;;;0.00;0.00;;;11.70;74.00;;;;;;5024430;28;20014;-79
2021/10/06 04:46:19;;;;;;;0.00;0.00;;;11.70;74.00;;;;;;5025250;28;20471;-79
2021/10/06 04:48:49;;;;;;;0.00;0.00;;;11.70;73.90;;;;;;5025635;28;20036;-79
2021/10/06 04:51:15;;;;;;;0.00;0.00;;;11.80;73.80;;;;;;5022366;28;20513;-79
2021/10/06 04:53:41;;;;;;;0.00;0.00;;;11.70;73.70;;;;;;5029754;28;20021;-79
2021/10/06 04:56:07;;;;;;;0.00;0.00;;;11.80;73.60;;;;;;5024628;28;20029;-80
2021/10/06 04:58:33;;;;;;;0.00;0.00;;;11.80;73.40;;;;;;5019890;28;20022;-79
2021/10/06 05:00:59;;;;;;;0.00;0.00;;;11.90;73.30;;;;;;5026618;28;20026;-78
2021/10/06 05:03:26;;;;;;;0.00;0.00;;;11.90;73.30;;;;;;5021799;28;20038;-77
2021/10/06 05:05:53;;;;;;;0.00;0.00;;;11.90;73.20;;;;;;5024685;28;20040;-80
2021/10/06 05:08:19;;;;;;;0.00;0.00;;;11.90;73.20;;;;;;5025534;28;20026;-79
2021/10/06 05:10:45;;;;;;;0.00;0.00;;;12.00;73.20;;;;;;5024588;28;20021;-78
2021/10/06 05:13:13;;;;;;;0.00;0.00;;;12.00;73.00;;;;;;5021709;28;20125;-79
2021/10/06 05:15:39;;;;;;;0.00;0.00;;;12.00;72.80;;;;;;5019904;28;20052;-79
2021/10/06 05:18:06;;;;;;;0.00;0.00;;;12.10;72.70;;;;;;5020403;28;20054;-79
2021/10/06 05:20:32;;;;;;;0.00;0.00;;;12.20;72.40;;;;;;5019617;28;20410;-79
2021/10/06 05:22:58;;;;;;;0.00;0.00;;;12.20;72.50;;;;;;5022676;28;20029;-79
2021/10/06 05:25:24;;;;;;;0.00;0.00;;;12.20;72.60;;;;;;5024116;28;20037;-78
2021/10/06 05:27:52;;;;;;;0.10;0.10;;;12.30;72.70;;;;;;5038781;28;20029;-79
2021/10/06 05:30:17;;;;;;;0.00;0.00;;;12.50;72.90;;;;;;5050949;28;20030;-79
2021/10/06 05:32:46;;;;;;;0.00;0.00;;;12.50;72.50;;;;;;5046647;28;20488;-77
2021/10/06 05:35:12;;;;;;;0.00;0.00;;;12.70;72.40;;;;;;5044888;28;20021;-79
2021/10/06 05:37:38;;;;;;;0.00;0.00;;;12.70;72.10;;;;;;5045289;28;20029;-79
2021/10/06 05:40:06;;;;;;;0.00;0.00;;;12.80;71.90;;;;;;5044220;28;20026;-80
2021/10/06 05:42:32;;;;;;;0.00;0.00;;;12.90;71.70;;;;;;5043205;28;20024;-79
2021/10/06 05:44:58;;;;;;;0.00;0.00;;;12.90;71.40;;;;;;5046228;28;20377;-79
2021/10/06 05:47:24;;;;;;;0.00;0.00;;;12.90;71.20;;;;;;5045904;28;20111;-80
2021/10/06 05:49:51;;;;;;;0.00;0.00;;;13.00;70.80;;;;;;5052088;28;20147;-79
2021/10/06 05:52:17;;;;;;;0.00;0.00;;;12.90;70.60;;;;;;5028008;28;20033;-79
2021/10/06 05:54:43;;;;;;;0.00;0.00;;;13.00;70.70;;;;;;5046742;28;20031;-79
2021/10/06 05:57:08;;;;;;;0.00;0.00;;;13.00;70.40;;;;;;5056394;28;20112;-79
2021/10/06 05:59:34;;;;;;;0.00;0.00;;;13.00;70.30;;;;;;5056525;28;20032;-79
2021/10/06 06:02:00;;;;;;;0.03;0.00;;;13.10;70.10;;;;;;5038774;28;20031;-79
2021/10/06 06:04:27;;;;;;;0.00;0.00;;;13.10;69.80;;;;;;5056252;28;20029;-78
2021/10/06 06:06:53;;;;;;;0.00;0.00;;;13.10;69.60;;;;;;5053613;28;20022;-79
2021/10/06 06:09:20;;;;;;;0.00;0.00;;;13.10;69.30;;;;;;5019762;28;20034;-78
2021/10/06 06:11:47;;;;;;;0.00;0.00;;;13.10;69.40;;;;;;5036716;28;20037;-78
2021/10/06 06:14:12;;;;;;;0.00;0.00;;;13.10;69.30;;;;;;5036575;28;20108;-78
2021/10/06 06:16:38;;;;;;;0.00;0.00;;;13.10;69.10;;;;;;5043327;28;20141;-77
2021/10/06 06:19:04;;;;;;;0.00;0.00;;;13.20;68.90;;;;;;5059542;28;20033;-78
2021/10/06 06:21:29;;;;;;;0.00;0.00;;;13.20;68.90;;;;;;5062235;28;20386;-83
2021/10/06 06:23:55;;;;;;;0.00;0.00;;;13.20;68.70;;;;;;5031786;28;20373;-77
2021/10/06 06:26:21;;;;;;;0.00;0.00;;;13.20;68.50;;;;;;5063872;28;20488;-78
2021/10/06 06:28:47;;;;;;;0.00;0.00;;;13.30;68.40;;;;;;5049720;28;20094;-81
2021/10/06 06:31:17;;;;;;;0.00;0.00;;;13.30;68.30;;;;;;5049917;28;20018;-78
2021/10/06 06:33:44;;;;;;;0.10;0.03;;;13.30;68.20;;;;;;5036173;28;20476;-79
2021/10/06 06:36:10;;;;;;;0.05;0.05;;;13.30;68.00;;;;;;5049196;28;20025;-79
2021/10/06 06:38:36;;;;;;;0.00;0.00;;;13.30;68.10;;;;;;5050313;28;20079;-77
2021/10/06 06:41:03;;;;;;;0.00;0.00;;;13.40;68.30;;;;;;5025169;28;20029;-76
2021/10/06 06:43:29;;;;;;;0.10;0.10;;;13.50;68.10;;;;;;5044933;28;20029;-79
2021/10/06 06:45:55;;;;;;;0.00;0.00;;;13.60;68.20;;;;;;5044780;28;20532;-78
2021/10/06 06:48:21;;;;;;;0.10;0.10;;;13.80;68.10;;;;;;5045637;28;20105;-79
2021/10/06 06:50:54;;;;;;;0.10;0.10;;;14.00;67.70;;;;;;5043900;28;20033;-78
2021/10/06 06:53:21;;;;;;;0.10;0.10;;;14.10;67.20;;;;;;5044884;28;20458;-79
2021/10/06 06:55:47;;;;;;;0.10;0.00;;;14.30;66.80;;;;;;5028552;28;20021;-80
2021/10/06 06:58:14;;;;;;;0.00;0.00;;;14.60;66.20;;;;;;5048260;28;20074;-81
2021/10/06 07:00:40;;;;;;;0.00;0.00;;;14.80;65.50;;;;;;5049463;28;20029;-80
2021/10/06 07:03:06;;;;;;;0.00;0.00;;;15.00;64.80;;;;;;5025545;28;20021;-80
2021/10/06 07:05:32;;;;;;;0.00;0.00;;;15.20;64.20;;;;;;5025397;28;20029;-80
2021/10/06 07:07:59;;;;;;;0.10;0.00;;;15.40;63.40;;;;;;5042054;28;20403;-80
2021/10/06 07:10:24;;;;;;;0.00;0.00;;;15.50;62.70;;;;;;5043175;28;20040;-80
2021/10/06 07:12:50;;;;;;;0.00;0.00;;;15.50;62.00;;;;;;5047316;28;20029;-79
2021/10/06 07:15:16;;;;;;;0.00;0.00;;;15.50;61.70;;;;;;5026033;28;20061;-79
2021/10/06 07:17:42;;;;;;;0.00;0.00;;;15.60;61.50;;;;;;5045832;28;20021;-82
2021/10/06 07:20:09;;;;;;;0.00;0.00;;;15.50;61.10;;;;;;5045943;28;20051;-79
2021/10/06 07:22:34;;;;;;;0.00;0.00;;;15.50;60.90;;;;;;5039879;28;20475;-79
2021/10/06 07:25:03;;;;;;;0.00;0.00;;;15.60;60.80;;;;;;5048034;28;20021;-79
2021/10/06 07:27:29;;;;;;;0.10;0.10;;;15.60;60.60;;;;;;5041535;28;20069;-78
2021/10/06 07:29:54;;;;;;;0.00;0.00;;;15.70;60.30;;;;;;5027123;28;20068;-79
2021/10/06 07:32:20;;;;;;;0.32;0.00;;;15.70;60.10;;;;;;5022225;28;20029;-78
2021/10/06 07:34:46;;;;;;;0.15;0.10;;;15.80;59.70;;;;;;5027559;28;20017;-79
2021/10/06 07:37:12;;;;;;;0.00;0.00;;;15.90;59.50;;;;;;5028347;28;20032;-80
2021/10/06 07:39:38;;;;;;;0.00;0.00;;;16.00;59.20;;;;;;5054558;28;20099;-80
2021/10/06 07:42:04;;;;;;;0.00;0.00;;;16.10;58.80;;;;;;5040770;28;20056;-79
2021/10/06 07:44:30;;;;;;;0.00;0.00;;;16.30;58.40;;;;;;5045846;28;20056;-80
2021/10/06 07:46:55;;;;;;;0.10;0.10;;;16.40;57.90;;;;;;5029032;28;20079;-78
2021/10/06 07:49:21;;;;;;;0.00;0.00;;;16.70;57.50;;;;;;5047581;28;20060;-80
2021/10/06 07:51:47;;;;;;;0.00;0.00;;;16.80;56.80;;;;;;5047610;28;20078;-80
2021/10/06 07:54:13;;;;;;;0.00;0.00;;;17.00;56.30;;;;;;5046683;28;20028;-80
2021/10/06 07:56:38;;;;;;;0.00;0.00;;;17.20;55.40;;;;;;5041889;28;20611;-79
2021/10/06 07:59:04;;;;;;;0.00;0.00;;;17.30;54.60;;;;;;5029467;28;20123;-78
2021/10/06 08:01:30;;;;;;;0.08;0.08;;;17.60;54.50;;;;;;5042690;28;20101;-80
2021/10/06 08:03:56;;;;;;;0.00;0.00;;;18.00;53.70;;;;;;5042178;28;20511;-81
2021/10/06 08:06:21;;;;;;;0.00;0.00;;;18.60;52.40;;;;;;5047803;28;20031;-78
2021/10/06 08:08:47;;;;;;;0.10;0.10;;;19.20;51.00;;;;;;5042366;28;20065;-80
2021/10/06 08:11:13;;;;;;;0.00;0.00;;;19.90;48.80;;;;;;5044018;28;20464;-80
2021/10/06 08:13:39;;;;;;;0.00;0.00;;;20.80;46.70;;;;;;5041090;28;20060;-79
2021/10/06 08:16:05;;;;;;;0.08;0.08;;;21.40;45.00;;;;;;5041119;28;21466;-79
2021/10/06 08:18:31;;;;;;;0.10;0.10;;;22.20;43.40;;;;;;5047002;28;20032;-79
2021/10/06 08:20:57;;;;;;;1.30;0.15;;;23.00;41.90;;;;;;5043078;28;20346;-79
2021/10/06 08:23:26;;;;;;;0.00;0.00;;;23.70;39.80;;;;;;5044153;28;20028;-80
2021/10/06 08:25:53;;;;;;;0.00;0.00;;;23.90;38.70;;;;;;5038517;28;20068;-78
2021/10/06 08:28:19;;;;;;;0.00;0.00;;;24.30;38.50;;;;;;5045751;28;20026;-78
2021/10/06 08:30:46;;;;;;;0.00;0.00;;;24.90;37.70;;;;;;5041966;28;20028;-78
2021/10/06 08:33:12;;;;;;;0.00;0.00;;;25.20;36.50;;;;;;5044670;28;20036;-80
2021/10/06 08:35:39;;;;;;;0.00;0.00;;;25.30;36.00;;;;;;5026711;28;20049;-78
2021/10/06 08:38:06;;;;;;;0.00;0.00;;;25.30;35.80;;;;;;5036303;28;20079;-79
2021/10/06 08:40:33;;;;;;;0.00;0.00;;;25.70;35.90;;;;;;5028767;28;20029;-78
2021/10/06 08:43:01;;;;;;;0.00;0.00;;;26.30;35.10;;;;;;5045979;28;20025;-79
2021/10/06 08:45:27;;;;;;;0.00;0.00;;;26.90;34.50;;;;;;5021024;28;20021;-80
2021/10/06 08:47:53;;;;;;;0.00;0.00;;;27.50;34.10;;;;;;5047060;28;20021;-79
2021/10/06 08:50:19;;;;;;;0.22;0.00;;;27.90;33.50;;;;;;5045441;28;20021;-79
2021/10/06 08:52:47;;;;;;;0.00;0.00;;;28.30;33.30;;;;;;5048932;28;20104;-79
2021/10/06 08:55:14;;;;;;;0.00;0.00;;;28.60;33.10;;;;;;5053271;28;20021;-79
2021/10/06 08:57:41;;;;;;;0.00;0.00;;;29.00;32.80;;;;;;5048870;28;20024;-79
2021/10/06 09:00:07;;;;;;;0.00;0.00;;;29.30;32.40;;;;;;5026321;28;20112;-78
2021/10/06 09:02:41;;;;;;;0.00;0.00;;;29.40;32.50;;;;;;5029311;28;20029;-79
2021/10/06 09:05:10;;;;;;;0.00;0.00;;;29.90;32.20;;;;;;5045254;28;20033;-81
2021/10/06 09:07:54;;;;;;;0.00;0.00;;;30.40;32.10;;;;;;5038856;28;20021;-79
2021/10/06 09:10:20;;;;;;;0.00;0.00;;;30.90;31.60;;;;;;5045209;28;20070;-78
2021/10/06 09:13:04;;;;;;;0.00;0.00;;;31.30;31.70;;;;;;5045030;28;20022;-78
2021/10/06 09:15:41;;;;;;;0.00;0.00;;;31.60;31.00;;;;;;5042146;28;20034;-77
2021/10/06 09:18:15;;;;;;;0.00;0.00;;;32.10;30.90;;;;;;5048938;28;20446;-80
2021/10/06 09:20:41;;;;;;;0.00;0.00;;;32.40;30.50;;;;;;5043148;28;20029;-78
2021/10/06 09:23:12;;;;;;;0.00;0.00;;;32.80;30.60;;;;;;5029599;28;20034;-79
2021/10/06 09:25:54;;;;;;;0.00;0.00;;;33.10;30.00;;;;;;5030796;28;20045;-77
2021/10/06 09:28:46;;;;;;;0.00;0.00;;;33.40;29.80;;;;;;5048136;28;20075;-78
2021/10/06 09:31:13;;;;;;;0.00;0.00;;;33.80;29.60;;;;;;5040351;28;20034;-80
2021/10/06 09:33:54;;;;;;;0.00;0.00;;;34.10;29.50;;;;;;5043751;28;20033;-79
2021/10/06 09:36:25;;;;;;;0.00;0.00;;;34.30;29.30;;;;;;5042848;28;20072;-79
2021/10/06 09:39:06;;;;;;;0.00;0.00;;;34.60;29.20;;;;;;5025897;28;20033;-80
2021/10/06 09:41:37;;;;;;;0.00;0.00;;;34.70;29.00;;;;;;5049017;28;20021;-80
2021/10/06 09:44:16;;;;;;;0.00;0.00;;;35.00;28.90;;;;;;5037692;28;20100;-79
2021/10/06 09:46:55;;;;;;;0.00;0.00;;;34.90;28.80;;;;;;5033519;28;20161;-78
2021/10/06 09:49:35;;;;;;;0.00;0.00;;;35.10;28.50;;;;;;5026049;28;20025;-78
2021/10/06 09:52:16;;;;;;;0.00;0.00;;;35.40;28.40;;;;;;5032901;28;20041;-78
2021/10/06 09:54:51;;;;;;;0.00;0.00;;;35.20;28.20;;;;;;5033082;28;20025;-79
2021/10/06 09:57:25;;;;;;;0.00;0.00;;;35.10;28.10;;;;;;5032453;28;20389;-78
2021/10/06 09:59:52;;;;;;;0.00;0.00;;;35.20;28.10;;;;;;5015073;28;20037;-77
2021/10/06 10:02:19;;;;;;;0.00;0.00;;;35.60;28.20;;;;;;5032943;28;20022;-78
2021/10/06 10:04:45;;;;;;;0.00;0.00;;;35.90;28.00;;;;;;5017568;28;20120;-78
2021/10/06 10:07:11;;;;;;;0.00;0.00;;;36.20;27.70;;;;;;5032626;28;20160;-78
2021/10/06 10:09:37;;;;;;;0.00;0.00;;;36.30;27.60;;;;;;5015009;28;20571;-85
2021/10/06 10:12:03;;;;;;;0.10;0.00;;;36.40;27.50;;;;;;5032882;28;20056;-79
2021/10/06 10:14:29;;;;;;;0.00;0.00;;;36.70;27.60;;;;;;5016727;28;20492;-86
2021/10/06 10:16:55;;;;;;;0.00;0.00;;;37.00;27.40;;;;;;5048977;28;20040;-77
2021/10/06 10:19:25;;;;;;;0.00;0.00;;;37.20;27.10;;;;;;5043968;28;20029;-79
2021/10/06 10:21:52;;;;;;;0.00;0.00;;;37.40;26.90;;;;;;5047678;28;20018;-77
2021/10/06 10:24:25;;;;;;;0.00;0.00;;;37.50;26.60;;;;;;5048675;28;20114;-79
2021/10/06 10:26:57;;;;;;;0.00;0.00;;;37.30;26.10;;;;;;5043744;28;20040;-79
2021/10/06 10:29:38;;;;;;;0.00;0.00;;;37.20;26.20;;;;;;5046624;28;20052;-79
2021/10/06 10:32:10;;;;;;;0.00;0.00;;;37.10;26.10;;;;;;5041092;28;20110;-79
2021/10/06 10:34:59;;;;;;;0.00;0.00;;;37.10;26.20;;;;;;5040327;28;20030;-77
2021/10/06 10:37:53;;;;;;;0.00;0.00;;;37.10;26.30;;;;;;5038932;28;20060;-79
2021/10/06 10:40:40;;;;;;;0.00;0.00;;;37.20;26.20;;;;;;5055650;28;20110;-79
2021/10/06 10:43:21;;;;;;;0.10;0.10;;;37.30;26.20;;;;;;5043328;28;20040;-80
2021/10/06 10:45:59;;;;;;;0.05;0.05;;;37.40;25.90;;;;;;5022808;28;20064;-78
2021/10/06 10:48:51;;;;;;;0.00;0.00;;;37.40;25.80;;;;;;5046701;28;20087;-80
2021/10/06 10:51:17;;;;;;;0.15;0.05;;;37.40;25.60;;;;;;5039902;28;20521;-79
2021/10/06 10:54:01;;;;;;;0.00;0.00;;;37.60;25.70;;;;;;5042987;28;20053;-79
2021/10/06 10:56:39;;;;;;;0.00;0.00;;;37.70;25.60;;;;;;5043105;28;20025;-79
2021/10/06 10:59:09;;;;;;;0.00;0.00;;;37.70;25.50;;;;;;5042965;28;20120;-80
2021/10/06 11:01:48;;;;;;;0.00;0.00;;;37.70;25.60;;;;;;5044021;28;20476;-81
2021/10/06 11:04:23;;;;;;;0.00;0.00;;;37.90;25.60;;;;;;5028630;28;20066;-79
2021/10/06 11:06:51;;;;;;;0.00;0.00;;;38.20;25.70;;;;;;5023083;28;20029;-78
2021/10/06 11:09:32;;;;;;;0.00;0.00;;;38.00;25.50;;;;;;5029877;28;20108;-79
2021/10/06 11:18:45;;;;;;;0.00;0.00;;;38.00;25.20;;;;;;5045137;28;20032;-78
2021/10/06 11:21:11;;;;;;;0.10;0.10;;;38.10;25.30;;;;;;5042322;28;20108;-79
2021/10/06 11:23:40;;;;;;;0.00;0.00;;;38.10;25.30;;;;;;5026335;28;20176;-79
2021/10/06 11:26:14;;;;;;;0.00;0.00;;;38.20;25.10;;;;;;5049380;28;20478;-79
2021/10/06 11:28:49;;;;;;;0.00;0.00;;;38.20;25.00;;;;;;5052944;28;20029;-78
2021/10/06 11:31:25;;;;;;;0.00;0.00;;;37.50;24.80;;;;;;5040926;28;20036;-79
2021/10/06 11:33:51;;;;;;;0.00;0.00;;;37.10;24.80;;;;;;5040459;28;20026;-79
2021/10/06 11:36:17;;;;;;;0.03;0.00;;;37.10;24.90;;;;;;5011369;28;20038;-79
2021/10/06 11:38:57;;;;;;;0.00;0.00;;;37.10;24.90;;;;;;5028374;28;20055;-79
2021/10/06 11:41:23;;;;;;;0.00;0.00;;;37.00;24.60;;;;;;5034741;28;20099;-79
2021/10/06 11:43:52;;;;;;;0.00;0.00;;;36.80;24.60;;;;;;5033970;28;20389;-78
2021/10/06 11:46:32;;;;;;;0.00;0.00;;;36.80;24.50;;;;;;5034674;28;20076;-79
2021/10/06 11:49:00;;;;;;;0.00;0.00;;;36.80;24.50;;;;;;5035048;28;20037;-80
2021/10/06 11:51:40;;;;;;;0.00;0.00;;;37.00;24.60;;;;;;5044760;28;20025;-82
2021/10/06 11:54:06;;;;;;;0.00;0.00;;;37.10;24.50;;;;;;5027928;28;20083;-80
2021/10/06 11:56:32;;;;;;;0.00;0.00;;;37.30;24.50;;;;;;5046314;28;20029;-79
2021/10/06 11:59:14;;;;;;;0.00;0.00;;;37.60;24.40;;;;;;5043140;28;20025;-78
2021/10/06 12:01:48;;;;;;;0.00;0.00;;;37.50;24.20;;;;;;5054143;28;20021;-79
2021/10/06 12:04:16;;;;;;;0.00;0.00;;;37.60;24.30;;;;;;5053801;28;20029;-80
2021/10/06 12:06:47;;;;;;;0.00;0.00;;;37.80;24.10;;;;;;5036472;28;20059;-79
2021/10/06 12:09:15;;;;;;;0.00;0.00;;;37.70;23.90;;;;;;5054943;28;20411;-79
2021/10/06 12:11:43;;;;;;;0.00;0.00;;;37.40;23.80;;;;;;5052986;28;20055;-87
2021/10/06 12:14:20;;;;;;;0.00;0.00;;;37.40;23.80;;;;;;5048697;28;20116;-80
2021/10/06 12:16:55;;;;;;;0.00;0.00;;;37.50;23.90;;;;;;5047479;28;20096;-79
2021/10/06 12:19:23;;;;;;;0.00;0.00;;;37.50;23.90;;;;;;5028218;28;20040;-79
2021/10/06 12:21:50;;;;;;;0.03;0.03;;;37.50;23.90;;;;;;5046358;28;20030;-79
2021/10/06 12:24:21;;;;;;;0.00;0.00;;;37.50;23.80;;;;;;5053493;28;20377;-80
2021/10/06 12:26:48;;;;;;;0.00;0.00;;;37.50;23.70;;;;;;5050599;28;20067;-83
2021/10/06 12:29:19;;;;;;;0.00;0.00;;;37.60;23.80;;;;;;5024380;28;20061;-81
2021/10/06 12:31:55;;;;;;;0.00;0.00;;;37.60;23.90;;;;;;5058232;28;20032;-83
2021/10/06 12:34:24;;;;;;;0.00;0.00;;;37.50;23.80;;;;;;5037836;28;20441;-81
2021/10/06 12:36:54;;;;;;;0.00;0.00;;;37.30;23.80;;;;;;5056719;28;20025;-81
2021/10/06 12:39:28;;;;;;;0.05;0.00;;;37.20;23.70;;;;;;5052353;28;20389;-81
2021/10/06 12:42:02;;;;;;;0.10;0.00;;;37.10;23.80;;;;;;5050068;28;20028;-78
2021/10/06 12:44:45;;;;;;;0.00;0.00;;;36.80;23.90;;;;;;5046365;28;20052;-82
2021/10/06 12:47:17;;;;;;;0.00;0.00;;;36.70;23.90;;;;;;5046679;28;20417;-83
2021/10/06 12:50:01;;;;;;;0.10;0.10;;;36.60;24.00;;;;;;5050784;28;20075;-79
2021/10/06 12:52:29;;;;;;;0.00;0.00;;;36.40;23.90;;;;;;5053601;28;20025;-80
2021/10/06 12:55:09;;;;;;;0.10;0.10;;;36.50;24.00;;;;;;5032723;28;20041;-82
2021/10/06 12:57:38;;;;;;;0.05;0.05;;;36.40;24.00;;;;;;5022656;28;20140;-78
2021/10/06 13:00:22;;;;;;;0.00;0.00;;;36.10;24.00;;;;;;5045640;28;20030;-81